createdAt,value
2023-02-07T00:01:35.252Z,99.90
2023-02-07T00:04:03.643Z,99.90
2023-02-07T00:06:36.697Z,99.90
2023-02-07T00:09:07.799Z,99.90
2023-02-07T00:11:40.514Z,99.90
2023-02-07T00:14:11.191Z,99.90
2023-02-07T00:16:39.740Z,99.90
2023-02-07T00:19:08.021Z,99.90
2023-02-07T00:21:37.657Z,99.90
2023-02-07T00:24:06.553Z,99.90
2023-02-07T00:26:34.720Z,99.90
2023-02-07T00:29:02.792Z,99.90
2023-02-07T00:31:34.044Z,99.90
2023-02-07T00:34:05.867Z,99.90
2023-02-07T00:36:37.006Z,99.90
2023-02-07T00:39:08.314Z,99.90
2023-02-07T00:41:36.465Z,99.90
2023-02-07T00:44:05.270Z,99.90
2023-02-07T00:46:33.750Z,99.90
2023-02-07T00:49:02.189Z,99.90
2023-02-07T00:51:30.417Z,99.90
2023-02-07T00:54:00.696Z,99.90
2023-02-07T00:56:31.449Z,99.90
2023-02-07T00:58:59.944Z,99.90
2023-02-07T01:01:29.021Z,99.90
2023-02-07T01:03:57.405Z,99.90
2023-02-07T01:06:25.828Z,99.90
2023-02-07T01:08:59.649Z,99.90
2023-02-07T01:11:28.901Z,99.90
2023-02-07T01:13:57.130Z,99.90
2023-02-07T01:16:28.035Z,99.90
2023-02-07T01:18:56.434Z,99.90
2023-02-07T01:21:27.280Z,99.90
2023-02-07T01:23:56.914Z,99.90
2023-02-07T01:26:27.393Z,99.90
2023-02-07T01:28:56.065Z,99.90
2023-02-07T01:31:24.995Z,99.90
2023-02-07T01:33:56.251Z,99.90
2023-02-07T01:36:25.159Z,99.90
2023-02-07T01:38:54.623Z,99.90
2023-02-07T01:41:23.967Z,99.90
2023-02-07T01:44:01.817Z,99.90
2023-02-07T01:46:32.454Z,99.90
2023-02-07T01:49:05.833Z,99.90
2023-02-07T01:51:35.867Z,99.90
2023-02-07T01:54:09.482Z,99.90
2023-02-07T01:56:44.276Z,99.90
2023-02-07T01:59:14.575Z,99.90
2023-02-07T02:01:44.216Z,99.90
2023-02-07T02:04:12.408Z,99.90
2023-02-07T02:06:42.377Z,99.90
2023-02-07T02:09:13.788Z,99.90
2023-02-07T02:12:23.427Z,99.90
2023-02-07T02:15:17.494Z,99.90
2023-02-07T02:18:01.568Z,99.90
2023-02-07T02:21:16.234Z,99.90
2023-02-07T02:24:05.097Z,99.90
2023-02-07T02:26:50.901Z,99.90
2023-02-07T02:30:05.102Z,99.90
2023-02-07T02:33:10.420Z,99.90
2023-02-07T02:35:49.774Z,99.90
2023-02-07T02:38:27.316Z,99.90
2023-02-07T02:41:02.560Z,99.90
2023-02-07T02:43:38.846Z,99.90
2023-02-07T02:46:13.261Z,99.90
2023-02-07T02:48:44.147Z,99.90
2023-02-07T02:51:12.271Z,99.90
2023-02-07T02:53:40.321Z,99.90
2023-02-07T02:56:43.725Z,99.90
2023-02-07T02:59:31.922Z,99.90
2023-02-07T03:02:13.197Z,99.90
2023-02-07T03:05:17.826Z,99.90
2023-02-07T03:07:58.253Z,99.90
2023-02-07T03:10:35.563Z,99.90
2023-02-07T03:13:15.899Z,99.90
2023-02-07T03:15:57.307Z,99.90
2023-02-07T03:18:34.533Z,99.90
2023-02-07T03:21:11.243Z,99.90
2023-02-07T03:23:40.339Z,99.90
2023-02-07T03:26:10.904Z,99.90
2023-02-07T03:28:40.533Z,99.90
2023-02-07T03:31:11.844Z,99.90
2023-02-07T03:33:40.364Z,99.90
2023-02-07T03:36:18.984Z,99.90
2023-02-07T03:38:47.573Z,99.90
2023-02-07T03:41:22.910Z,99.90
2023-02-07T03:43:52.524Z,99.90
2023-02-07T03:46:23.569Z,99.90
2023-02-07T03:48:51.623Z,99.90
2023-02-07T03:51:20.999Z,99.90
2023-02-07T03:53:49.000Z,99.90
2023-02-07T03:56:16.990Z,99.90
2023-02-07T03:58:45.236Z,99.90
2023-02-07T04:01:14.944Z,99.90
2023-02-07T04:03:42.969Z,99.90
2023-02-07T04:06:11.245Z,99.90
2023-02-07T04:08:40.590Z,99.90
2023-02-07T04:11:08.852Z,99.90
2023-02-07T04:13:36.966Z,99.90
2023-02-07T04:16:08.713Z,99.90
2023-02-07T04:18:36.775Z,99.90
2023-02-07T04:21:07.153Z,99.90
2023-02-07T04:23:36.290Z,99.90
2023-02-07T04:26:06.194Z,99.90
2023-02-07T04:28:36.090Z,99.90
2023-02-07T04:31:04.185Z,99.90
2023-02-07T04:33:32.278Z,99.90
2023-02-07T04:36:03.073Z,99.90
2023-02-07T04:38:31.890Z,99.90
2023-02-07T04:41:00.809Z,99.90
2023-02-07T04:43:30.476Z,99.90
2023-02-07T04:45:58.584Z,99.90
2023-02-07T04:48:27.012Z,99.90
2023-02-07T04:50:55.534Z,99.90
2023-02-07T04:53:23.752Z,99.90
2023-02-07T04:55:53.217Z,99.90
2023-02-07T04:58:21.908Z,99.90
2023-02-07T05:00:51.257Z,99.90
2023-02-07T05:03:19.330Z,99.90
2023-02-07T05:05:47.443Z,99.90
2023-02-07T05:08:18.135Z,99.90
2023-02-07T05:10:47.613Z,99.90
2023-02-07T05:13:15.705Z,99.90
2023-02-07T05:15:44.325Z,99.90
2023-02-07T05:18:13.732Z,99.90
2023-02-07T05:20:41.733Z,99.90
2023-02-07T05:23:11.984Z,99.90
2023-02-07T05:25:42.192Z,99.90
2023-02-07T05:28:12.084Z,99.90
2023-02-07T05:30:40.247Z,99.90
2023-02-07T05:33:07.730Z,99.90
2023-02-07T05:35:39.618Z,99.90
2023-02-07T05:38:10.758Z,99.90
2023-02-07T05:40:40.529Z,99.90
2023-02-07T05:43:09.333Z,99.90
2023-02-07T05:45:38.043Z,99.90
2023-02-07T05:48:06.883Z,99.90
2023-02-07T05:50:36.596Z,99.90
2023-02-07T05:53:05.461Z,99.90
2023-02-07T05:55:33.556Z,99.90
2023-02-07T05:58:01.582Z,99.90
2023-02-07T06:00:29.864Z,99.90
2023-02-07T06:02:57.870Z,99.90
2023-02-07T06:05:31.406Z,99.90
2023-02-07T06:08:00.912Z,99.90
2023-02-07T06:10:28.940Z,99.90
2023-02-07T06:12:56.981Z,99.90
2023-02-07T06:15:24.987Z,99.90
2023-02-07T06:17:53.075Z,99.90
2023-02-07T06:20:21.351Z,99.90
2023-02-07T06:22:49.319Z,99.90
2023-02-07T06:25:21.214Z,99.90
2023-02-07T06:27:49.476Z,99.90
2023-02-07T06:30:17.442Z,99.90
2023-02-07T06:32:45.487Z,99.90
2023-02-07T06:35:13.903Z,99.90
2023-02-07T06:37:41.977Z,99.90
2023-02-07T06:40:11.202Z,99.90
2023-02-07T06:42:40.627Z,99.90
2023-02-07T06:45:10.009Z,99.90
2023-02-07T06:47:38.094Z,99.90
2023-02-07T06:50:09.095Z,99.90
2023-02-07T06:52:37.372Z,99.90
2023-02-07T06:55:05.900Z,99.90
2023-02-07T06:57:34.016Z,99.90
2023-02-07T07:00:04.674Z,99.90
2023-02-07T07:02:33.007Z,99.90
2023-02-07T07:05:01.055Z,99.90
2023-02-07T07:07:29.254Z,99.90
2023-02-07T07:09:57.388Z,99.90
2023-02-07T07:12:25.457Z,99.90
2023-02-07T07:14:53.491Z,99.90
2023-02-07T07:17:22.882Z,99.90
2023-02-07T07:19:50.918Z,99.90
2023-02-07T07:22:21.422Z,99.90
2023-02-07T07:24:50.259Z,99.90
2023-02-07T07:27:18.359Z,99.90
2023-02-07T07:29:47.123Z,99.90
2023-02-07T07:32:28.601Z,99.90
2023-02-07T07:35:02.595Z,99.90
2023-02-07T07:37:30.737Z,99.90
2023-02-07T07:39:59.054Z,99.90
2023-02-07T07:42:27.275Z,99.90
2023-02-07T07:44:55.295Z,99.90
2023-02-07T07:47:24.939Z,99.90
2023-02-07T07:49:52.965Z,99.90
2023-02-07T07:52:22.312Z,99.90
2023-02-07T07:54:50.275Z,99.90
2023-02-07T07:57:20.334Z,99.90
2023-02-07T07:59:48.966Z,99.90
2023-02-07T08:02:16.928Z,99.90
2023-02-07T08:04:44.898Z,99.90
2023-02-07T08:07:12.889Z,99.90
2023-02-07T08:09:42.258Z,99.90
2023-02-07T08:12:10.395Z,99.90
2023-02-07T08:14:38.589Z,99.90
2023-02-07T08:17:08.467Z,99.90
2023-02-07T08:19:38.269Z,99.90
2023-02-07T08:22:06.350Z,99.90
2023-02-07T08:24:35.945Z,98.60
2023-02-07T08:27:05.804Z,98.30
2023-02-07T08:29:34.015Z,97.70
2023-02-07T08:32:02.161Z,96.70
2023-02-07T08:34:31.813Z,96.50
2023-02-07T08:36:59.835Z,95.90
2023-02-07T08:39:28.026Z,94.70
2023-02-07T08:41:57.235Z,94.50
2023-02-07T08:44:27.853Z,93.10
2023-02-07T08:46:56.043Z,94.00
2023-02-07T08:49:24.033Z,92.90
2023-02-07T08:51:52.706Z,92.50
2023-02-07T08:54:21.207Z,91.60
2023-02-07T08:56:49.229Z,90.30
2023-02-07T08:59:17.221Z,90.30
2023-02-07T09:01:46.599Z,87.70
2023-02-07T09:04:14.624Z,86.60
2023-02-07T09:06:42.646Z,86.30
2023-02-07T09:09:10.832Z,81.20
2023-02-07T09:11:39.043Z,79.70
2023-02-07T09:14:09.041Z,80.00
2023-02-07T09:16:37.916Z,80.10
2023-02-07T09:19:07.361Z,76.10
2023-02-07T09:21:37.476Z,75.80
2023-02-07T09:24:05.838Z,75.50
2023-02-07T09:26:35.268Z,75.10
2023-02-07T09:29:03.603Z,71.60
2023-02-07T09:31:31.821Z,68.50
2023-02-07T09:34:00.136Z,70.10
2023-02-07T09:36:30.881Z,71.50
2023-02-07T09:39:00.638Z,71.00
2023-02-07T09:41:37.954Z,68.70
2023-02-07T09:44:16.623Z,68.90
2023-02-07T09:46:52.035Z,71.30
2023-02-07T09:49:36.993Z,68.20
2023-02-07T09:52:12.704Z,68.20
2023-02-07T09:54:44.935Z,65.60
2023-02-07T09:57:21.166Z,64.80
2023-02-07T09:59:55.295Z,65.20
2023-02-07T10:02:28.995Z,61.30
2023-02-07T10:05:02.888Z,60.80
2023-02-07T10:07:32.516Z,59.30
2023-02-07T10:10:00.597Z,59.00
2023-02-07T10:13:01.160Z,59.00
2023-02-07T10:15:44.171Z,59.40
2023-02-07T10:18:30.815Z,59.40
2023-02-07T10:21:08.001Z,59.20
2023-02-07T10:23:56.421Z,62.20
2023-02-07T10:26:34.234Z,59.70
2023-02-07T10:29:46.470Z,57.70
2023-02-07T10:32:21.575Z,57.60
2023-02-07T10:34:52.567Z,57.90
2023-02-07T10:37:23.973Z,57.30
2023-02-07T10:40:01.588Z,56.50
2023-02-07T10:42:31.677Z,56.90
2023-02-07T10:44:59.758Z,55.00
2023-02-07T10:47:27.757Z,55.40
2023-02-07T10:49:57.009Z,56.20
2023-02-07T10:52:31.570Z,54.00
2023-02-07T10:55:02.932Z,53.50
2023-02-07T10:57:32.090Z,55.10
2023-02-07T11:00:05.336Z,54.10
2023-02-07T11:02:44.744Z,54.30
2023-02-07T11:05:35.710Z,54.10
2023-02-07T11:08:09.925Z,53.00
2023-02-07T11:10:42.500Z,54.20
2023-02-07T11:13:16.075Z,53.30
2023-02-07T11:15:52.182Z,52.30
2023-02-07T11:18:33.664Z,55.60
2023-02-07T11:21:01.736Z,54.30
2023-02-07T11:23:29.794Z,54.20
2023-02-07T11:25:59.338Z,54.20
2023-02-07T11:28:30.649Z,55.40
2023-02-07T11:31:03.990Z,52.70
2023-02-07T11:33:36.325Z,54.10
2023-02-07T11:36:22.245Z,54.70
2023-02-07T11:38:53.666Z,55.90
2023-02-07T11:41:25.565Z,55.50
2023-02-07T11:43:57.853Z,56.00
2023-02-07T11:46:35.817Z,54.00
2023-02-07T11:49:06.118Z,54.10
2023-02-07T11:51:35.232Z,54.50
2023-02-07T11:54:06.326Z,55.50
2023-02-07T11:56:41.049Z,54.80
2023-02-07T11:59:22.090Z,55.90
2023-02-07T12:01:55.800Z,54.40
2023-02-07T12:04:29.308Z,52.80
2023-02-07T12:07:02.645Z,51.70
2023-02-07T12:09:36.871Z,50.30
2023-02-07T12:12:14.088Z,50.90
2023-02-07T12:14:48.486Z,52.40
2023-02-07T12:17:22.899Z,52.20
2023-02-07T12:19:56.489Z,52.60
2023-02-07T12:22:30.286Z,51.90
2023-02-07T12:25:03.288Z,50.80
2023-02-07T12:27:38.253Z,51.90
2023-02-07T12:30:15.691Z,51.20
2023-02-07T12:32:54.606Z,51.50
2023-02-07T12:35:28.460Z,51.20
2023-02-07T12:38:06.730Z,51.70
2023-02-07T12:40:41.390Z,51.50
2023-02-07T12:43:19.386Z,52.80
2023-02-07T12:46:11.762Z,53.70
2023-02-07T12:49:00.907Z,54.20
2023-02-07T12:51:41.442Z,54.60
2023-02-07T12:54:26.396Z,52.70
2023-02-07T12:57:00.236Z,51.10
2023-02-07T12:59:43.273Z,52.60
2023-02-07T13:02:34.739Z,53.90
2023-02-07T13:05:37.963Z,54.60
2023-02-07T13:08:18.047Z,54.80
2023-02-07T13:10:58.076Z,55.60
2023-02-07T13:13:32.629Z,55.40
2023-02-07T13:16:10.004Z,54.30
2023-02-07T13:18:46.065Z,54.50
2023-02-07T13:21:24.277Z,56.90
2023-02-07T13:23:52.384Z,57.80
2023-02-07T13:26:26.163Z,55.20
2023-02-07T13:28:58.483Z,56.80
2023-02-07T13:31:41.782Z,57.50
2023-02-07T13:34:17.133Z,58.60
2023-02-07T13:36:49.013Z,58.10
2023-02-07T13:39:31.079Z,59.40
2023-02-07T13:42:15.625Z,59.30
2023-02-07T13:44:54.998Z,59.60
2023-02-07T13:47:40.563Z,60.70
2023-02-07T13:50:21.124Z,59.40
2023-02-07T13:52:59.914Z,59.30
2023-02-07T13:55:33.764Z,58.90
2023-02-07T13:58:19.879Z,58.30
2023-02-07T14:01:11.016Z,58.40
2023-02-07T14:03:40.563Z,57.70
2023-02-07T14:06:22.533Z,56.90
2023-02-07T14:09:05.438Z,57.00
2023-02-07T14:11:40.834Z,58.30
2023-02-07T14:14:25.508Z,58.90
2023-02-07T14:16:57.766Z,59.10
2023-02-07T14:19:52.354Z,58.60
2023-02-07T14:22:24.981Z,59.40
2023-02-07T14:25:23.066Z,59.20
2023-02-07T14:28:20.469Z,58.60
2023-02-07T14:31:09.121Z,57.80
2023-02-07T14:33:39.884Z,58.20
2023-02-07T14:36:26.028Z,58.60
2023-02-07T14:39:27.790Z,59.40
2023-02-07T14:42:13.020Z,56.80
2023-02-07T14:44:44.292Z,56.00
2023-02-07T14:47:24.367Z,56.90
2023-02-07T14:49:56.162Z,57.90
2023-02-07T14:52:28.176Z,57.80
2023-02-07T14:54:59.716Z,58.20
2023-02-07T14:57:38.503Z,58.50
2023-02-07T15:00:26.677Z,59.70
2023-02-07T15:02:57.692Z,60.70
2023-02-07T15:05:28.159Z,58.80
2023-02-07T15:08:08.069Z,59.00
2023-02-07T15:10:41.788Z,59.50
2023-02-07T15:13:26.017Z,59.50
2023-02-07T15:16:00.316Z,59.00
2023-02-07T15:18:33.427Z,59.30
2023-02-07T15:21:01.946Z,59.90
2023-02-07T15:23:31.915Z,60.10
2023-02-07T15:26:06.083Z,60.00
2023-02-07T15:28:39.398Z,60.40
2023-02-07T15:31:20.632Z,61.90
2023-02-07T15:33:55.303Z,59.70
2023-02-07T15:36:34.717Z,59.50
2023-02-07T15:39:06.224Z,59.60
2023-02-07T15:41:35.244Z,60.70
2023-02-07T15:44:07.219Z,61.50
2023-02-07T15:46:47.687Z,62.60
2023-02-07T15:49:31.364Z,67.00
2023-02-07T15:52:13.425Z,69.80
2023-02-07T15:54:46.955Z,67.40
2023-02-07T15:57:26.767Z,67.40
2023-02-07T16:00:01.733Z,66.40
2023-02-07T16:02:32.839Z,68.00
2023-02-07T16:05:09.419Z,70.10
2023-02-07T16:07:39.727Z,71.50
2023-02-07T16:10:20.749Z,75.10
2023-02-07T16:12:53.026Z,76.30
2023-02-07T16:15:30.097Z,77.60
2023-02-07T16:17:58.265Z,79.00
2023-02-07T16:20:28.047Z,79.60
2023-02-07T16:22:59.788Z,82.00
2023-02-07T16:25:30.956Z,84.80
2023-02-07T16:27:59.257Z,86.90
2023-02-07T16:30:32.760Z,87.10
2023-02-07T16:33:05.862Z,87.80
2023-02-07T16:35:34.329Z,89.20
2023-02-07T16:38:02.388Z,90.30
2023-02-07T16:40:30.736Z,90.80
2023-02-07T16:42:59.076Z,91.60
2023-02-07T16:45:30.174Z,92.60
2023-02-07T16:48:00.617Z,92.90
2023-02-07T16:50:31.449Z,94.40
2023-02-07T16:52:59.802Z,95.00
2023-02-07T16:55:29.619Z,95.70
2023-02-07T16:57:58.634Z,95.80
2023-02-07T17:00:28.715Z,96.30
2023-02-07T17:02:57.946Z,97.50
2023-02-07T17:05:26.049Z,98.00
2023-02-07T17:07:54.041Z,98.50
2023-02-07T17:10:27.125Z,99.40
2023-02-07T17:12:55.314Z,99.20
2023-02-07T17:15:24.237Z,99.90
2023-02-07T17:17:53.919Z,99.90
2023-02-07T17:20:26.408Z,99.90
2023-02-07T17:22:55.392Z,99.90
2023-02-07T17:25:26.494Z,99.90
2023-02-07T17:27:54.569Z,99.90
2023-02-07T17:30:25.727Z,99.90
2023-02-07T17:32:56.193Z,99.90
2023-02-07T17:35:25.220Z,99.90
2023-02-07T17:37:53.598Z,99.90
2023-02-07T17:40:30.648Z,99.90
2023-02-07T17:42:59.440Z,99.90
2023-02-07T17:45:29.501Z,99.90
2023-02-07T17:47:59.587Z,99.90
2023-02-07T17:50:30.832Z,99.90
2023-02-07T17:53:01.355Z,99.90
2023-02-07T17:55:30.180Z,99.90
2023-02-07T17:57:58.497Z,99.90
2023-02-07T18:00:30.289Z,99.90
2023-02-07T18:02:59.659Z,99.90
2023-02-07T18:05:27.679Z,99.90
2023-02-07T18:07:55.796Z,99.90
2023-02-07T18:10:27.349Z,99.90
2023-02-07T18:12:55.749Z,99.90
2023-02-07T18:15:24.926Z,99.90
2023-02-07T18:17:55.643Z,99.90
2023-02-07T18:20:28.641Z,99.90
2023-02-07T18:22:58.827Z,99.90
2023-02-07T18:25:29.348Z,99.90
2023-02-07T18:27:58.279Z,99.90
2023-02-07T18:30:28.575Z,99.90
2023-02-07T18:32:56.692Z,99.90
2023-02-07T18:35:26.052Z,99.90
2023-02-07T18:37:54.037Z,99.90
2023-02-07T18:40:22.386Z,99.90
2023-02-07T18:42:50.598Z,99.90
2023-02-07T18:45:18.850Z,99.90
2023-02-07T18:47:48.283Z,99.90
2023-02-07T18:50:19.531Z,99.90
2023-02-07T18:52:49.709Z,99.90
2023-02-07T18:55:17.841Z,99.90
2023-02-07T18:57:45.821Z,99.90
2023-02-07T19:00:15.417Z,99.90
2023-02-07T19:02:43.565Z,99.90
2023-02-07T19:05:11.721Z,99.90
2023-02-07T19:07:40.686Z,99.90
2023-02-07T19:10:12.202Z,99.90
2023-02-07T19:12:40.629Z,99.90
2023-02-07T19:15:10.124Z,99.90
2023-02-07T19:17:38.170Z,99.90
2023-02-07T19:20:06.886Z,99.90
2023-02-07T19:22:36.255Z,99.90
2023-02-07T19:25:05.506Z,99.90
2023-02-07T19:27:35.113Z,99.90
2023-02-07T19:30:03.336Z,99.90
2023-02-07T19:32:31.405Z,99.90
2023-02-07T19:34:59.522Z,99.90
2023-02-07T19:37:27.669Z,99.90
2023-02-07T19:39:57.220Z,99.90
2023-02-07T19:42:25.675Z,99.90
2023-02-07T19:44:55.084Z,99.90
2023-02-07T19:47:23.138Z,99.90
2023-02-07T19:49:52.300Z,99.90
2023-02-07T19:52:20.911Z,99.90
2023-02-07T19:54:48.911Z,99.90
2023-02-07T19:57:17.644Z,99.90
2023-02-07T19:59:48.246Z,99.90
2023-02-07T20:02:17.760Z,99.90
2023-02-07T20:04:45.837Z,99.90
2023-02-07T20:07:13.886Z,99.90
2023-02-07T20:09:42.962Z,99.90
2023-02-07T20:12:10.976Z,99.90
2023-02-07T20:14:39.136Z,99.90
2023-02-07T20:17:07.587Z,99.90
2023-02-07T20:19:38.024Z,99.90
2023-02-07T20:22:06.149Z,99.90
2023-02-07T20:24:34.167Z,99.90
2023-02-07T20:27:02.362Z,99.90
2023-02-07T20:29:32.478Z,99.90
2023-02-07T20:32:00.585Z,99.90
2023-02-07T20:34:28.603Z,99.90
2023-02-07T20:36:57.975Z,99.90
2023-02-07T20:39:26.683Z,99.90
2023-02-07T20:41:56.910Z,99.90
2023-02-07T20:44:26.517Z,99.90
2023-02-07T20:46:56.301Z,99.90
2023-02-07T20:49:28.384Z,99.90
2023-02-07T20:51:59.716Z,99.90
2023-02-07T20:54:30.122Z,99.90
2023-02-07T20:56:58.447Z,99.90
2023-02-07T20:59:29.445Z,99.90
2023-02-07T21:01:57.825Z,99.90
2023-02-07T21:04:26.639Z,99.90
2023-02-07T21:06:54.826Z,99.90
2023-02-07T21:09:24.265Z,99.90
2023-02-07T21:11:54.452Z,99.90
2023-02-07T21:14:25.805Z,99.90
2023-02-07T21:16:54.395Z,99.90
2023-02-07T21:19:23.078Z,99.90
2023-02-07T21:21:51.710Z,99.90
2023-02-07T21:24:20.201Z,99.90
2023-02-07T21:26:50.519Z,99.90
2023-02-07T21:29:19.082Z,99.90
2023-02-07T21:31:47.559Z,99.90
2023-02-07T21:34:17.856Z,99.90
2023-02-07T21:36:46.041Z,99.90
2023-02-07T21:39:15.021Z,99.90
2023-02-07T21:41:46.013Z,99.90
2023-02-07T21:44:16.439Z,99.90
2023-02-07T21:46:48.295Z,99.90
2023-02-07T21:49:20.367Z,99.90
2023-02-07T21:51:50.185Z,99.90
2023-02-07T21:54:18.546Z,99.90
2023-02-07T21:56:47.093Z,99.90
2023-02-07T21:59:19.112Z,99.90
2023-02-07T22:01:48.040Z,99.90
2023-02-07T22:04:17.706Z,99.90
2023-02-07T22:06:50.552Z,99.90
2023-02-07T22:09:22.233Z,99.90
2023-02-07T22:11:50.994Z,99.90
2023-02-07T22:14:20.861Z,99.90
2023-02-07T22:16:52.262Z,99.90
2023-02-07T22:19:23.656Z,99.90
2023-02-07T22:21:52.373Z,99.90
2023-02-07T22:24:23.166Z,99.90
2023-02-07T22:26:51.368Z,99.90
2023-02-07T22:29:20.702Z,99.90
2023-02-07T22:31:48.769Z,99.90
2023-02-07T22:34:17.230Z,99.90
2023-02-07T22:36:46.999Z,99.90
2023-02-07T22:39:17.258Z,99.90
2023-02-07T22:41:46.129Z,99.90
2023-02-07T22:44:14.561Z,99.90
2023-02-07T22:46:44.406Z,99.90
2023-02-07T22:49:12.439Z,99.90
2023-02-07T22:51:40.463Z,99.90
2023-02-07T22:54:11.694Z,99.90
2023-02-07T22:56:40.395Z,99.90
2023-02-07T22:59:08.712Z,99.90
2023-02-07T23:01:39.664Z,99.90
2023-02-07T23:04:15.271Z,99.90
2023-02-07T23:06:44.246Z,99.90
2023-02-07T23:09:12.635Z,99.90
2023-02-07T23:11:40.725Z,99.90
2023-02-07T23:14:08.783Z,99.90
2023-02-07T23:16:38.223Z,99.90
2023-02-07T23:19:10.580Z,99.90
2023-02-07T23:21:38.657Z,99.90
2023-02-07T23:24:07.422Z,99.90
2023-02-07T23:26:35.621Z,99.90
2023-02-07T23:29:03.747Z,99.90
2023-02-07T23:31:32.031Z,99.90
2023-02-07T23:34:00.084Z,99.90
2023-02-07T23:36:29.493Z,99.90
2023-02-07T23:38:57.711Z,99.90
2023-02-07T23:41:25.745Z,99.90
2023-02-07T23:43:53.707Z,99.90
2023-02-07T23:46:21.726Z,99.90
2023-02-07T23:48:49.913Z,99.90
2023-02-07T23:51:18.030Z,99.90
2023-02-07T23:53:48.650Z,99.90
2023-02-07T23:56:19.369Z,99.90
2023-02-07T23:58:48.630Z,99.90
